Ana Sayfa
METAR-TAF:

METAR-TAF

Havaalanları :

Ondangwa, Namibya

Enlem: 17-52-42S, Boylam: 015-57-09E, yükseklik: 1096 m

METAR: eksik

Saat: 09:27 (08:27 UTC)

Tahmin

Rapor saat 05:00 UTC de 3 saat ve 27 dakika önce yapıldı.
Ayın 14'si saat 06 UTC'den ayın 14'si saat 15 UTC'ye kadar geçerli Tahmin
Rüzgar kuzeydan kt
Görüş mesafesi 10 km veya daha fazla
1500 m altında bulut yok ve kümülonimbus yok
Dönüşüyor
ayın 14'si saat 08 UTC'den ayın 14'si saat 10 UTC'ye kadar
Rüzgar kuzeydoğudan 6 kt

TAF: FYOA 140500Z 1406/1415 00000KT CAVOK BECMG 1408/1410 04006KT

4.000'den fazla havaalanı için hava durumu gözlemleri ve tahminleri (METAR ve TAF raporları).

Kullanılabilir istasyonlar harita üzerinde sarı ve kırmızı noktalarla gösterilir.

İstasyonun adını görmek için fareyi noktanın üzerinde gezdirin.

Sonrasında hava gözlem ve tahminlerini görmek için tıklayın.

Haritayı değiştirmek için: yaklaştırmak için siyah artı işaretli yeşil düğmeye ve uzaklaştırmak için de eksi işaretli düğmeye hızla tıklayın; bitişik haritalar için yeşil okları kullanın.


METAR-TAF: